Time;durP1;ratioP1;P1;durP2;ratioP2;P2;SDS_P1;SDS_P2;PMS_P1;PMS_P2;Temp;Humidity;BMP_temperature;BMP_pressure;BME280_temperature;BME280_humidity;BME280_pressure;Samples;Min_cycle;Max_cycle;Signal;HPM_P1;HPM_P2
2023/04/29 00:01:03;;;;;;;0.80;0.52;;;18.10;77.00;;;;;;5032225;28;20021;-69
2023/04/29 00:03:31;;;;;;;1.00;0.65;;;18.10;77.10;;;;;;5032233;28;20017;-69
2023/04/29 00:05:57;;;;;;;0.50;0.50;;;18.10;77.10;;;;;;5032352;28;20018;-68
2023/04/29 00:08:22;;;;;;;0.60;0.30;;;18.10;77.20;;;;;;5031139;28;20057;-68
2023/04/29 00:10:48;;;;;;;1.00;0.40;;;18.10;77.30;;;;;;5031966;28;20144;-69
2023/04/29 00:13:14;;;;;;;0.55;0.55;;;18.10;77.20;;;;;;5030720;28;20457;-69
2023/04/29 00:15:40;;;;;;;1.23;0.50;;;18.10;77.30;;;;;;5032198;28;20034;-69
2023/04/29 00:18:06;;;;;;;0.55;0.50;;;18.10;77.30;;;;;;5014670;28;20033;-69
2023/04/29 00:20:32;;;;;;;0.60;0.35;;;18.10;77.40;;;;;;5032215;28;20071;-69
2023/04/29 00:22:57;;;;;;;0.38;0.38;;;18.10;77.40;;;;;;5032190;28;20024;-68
2023/04/29 00:25:23;;;;;;;0.35;0.35;;;18.10;77.60;;;;;;5031715;28;20041;-69
2023/04/29 00:27:49;;;;;;;1.63;0.45;;;18.10;77.40;;;;;;5032211;28;20026;-68
2023/04/29 00:30:14;;;;;;;0.50;0.50;;;18.10;77.60;;;;;;5031989;28;20029;-69
2023/04/29 00:32:40;;;;;;;0.88;0.60;;;18.10;77.60;;;;;;5031937;28;20029;-68
2023/04/29 00:35:06;;;;;;;0.95;0.52;;;18.10;77.80;;;;;;5031861;28;20109;-68
2023/04/29 00:37:32;;;;;;;0.63;0.55;;;18.10;77.70;;;;;;5031808;28;20101;-68
2023/04/29 00:39:57;;;;;;;0.65;0.40;;;18.10;77.70;;;;;;5030822;28;20025;-68
2023/04/29 00:42:24;;;;;;;0.68;0.50;;;18.00;77.80;;;;;;5031958;28;20072;-68
2023/04/29 00:44:50;;;;;;;0.47;0.45;;;18.00;77.90;;;;;;5014424;28;20021;-68
2023/04/29 00:47:16;;;;;;;0.40;0.40;;;18.00;78.00;;;;;;5031379;28;20056;-68
2023/04/29 00:49:41;;;;;;;0.40;0.40;;;18.00;78.00;;;;;;5030710;28;20029;-68
2023/04/29 00:52:07;;;;;;;0.40;0.40;;;18.00;78.00;;;;;;5033104;28;20030;-68
2023/04/29 00:54:34;;;;;;;1.10;0.60;;;18.00;78.00;;;;;;5033906;28;20071;-68
2023/04/29 00:57:01;;;;;;;0.45;0.45;;;18.00;78.10;;;;;;5034109;28;20037;-68
2023/04/29 00:59:31;;;;;;;0.47;0.47;;;18.00;78.10;;;;;;5034248;28;20029;-69
2023/04/29 01:02:02;;;;;;;0.40;0.40;;;18.00;78.20;;;;;;5034059;28;20029;-69
2023/04/29 01:04:27;;;;;;;0.50;0.50;;;18.00;78.20;;;;;;5035251;28;20029;-69
2023/04/29 01:07:02;;;;;;;0.47;0.43;;;18.00;78.40;;;;;;5034190;28;20030;-68
2023/04/29 01:09:38;;;;;;;0.40;0.40;;;18.00;78.30;;;;;;5034824;28;20041;-69
2023/04/29 01:12:12;;;;;;;3.50;0.95;;;18.00;78.40;;;;;;5033808;28;20067;-69
2023/04/29 01:14:38;;;;;;;1.08;0.40;;;18.00;78.50;;;;;;5033929;28;20017;-69
2023/04/29 01:17:10;;;;;;;0.70;0.40;;;18.00;78.50;;;;;;5033859;28;20522;-68
2023/04/29 01:19:45;;;;;;;0.60;0.40;;;18.00;78.50;;;;;;5017468;28;20032;-68
2023/04/29 01:22:13;;;;;;;0.63;0.30;;;18.00;78.50;;;;;;5017541;28;20056;-68
2023/04/29 01:24:39;;;;;;;0.98;0.47;;;18.00;78.60;;;;;;5034467;28;20545;-68
2023/04/29 01:27:33;;;;;;;0.50;0.50;;;18.00;78.60;;;;;;5033805;28;20018;-68
2023/04/29 01:30:18;;;;;;;0.30;0.30;;;18.00;78.70;;;;;;5032591;28;20108;-69
2023/04/29 01:32:52;;;;;;;0.45;0.45;;;18.00;78.70;;;;;;5018618;28;20029;-68
2023/04/29 01:35:30;;;;;;;0.50;0.50;;;18.00;78.70;;;;;;5015965;28;20049;-69
2023/04/29 01:38:24;;;;;;;0.60;0.50;;;18.00;78.70;;;;;;5016233;28;20542;-68
2023/04/29 01:40:58;;;;;;;0.40;0.40;;;18.00;78.70;;;;;;5007142;28;20037;-68
2023/04/29 01:43:27;;;;;;;0.50;0.47;;;17.90;78.80;;;;;;5032315;28;20021;-69
2023/04/29 01:45:55;;;;;;;0.50;0.50;;;18.00;78.90;;;;;;5015974;28;20029;-68
2023/04/29 01:48:22;;;;;;;0.75;0.50;;;18.00;79.00;;;;;;5015895;28;20044;-68
2023/04/29 01:50:49;;;;;;;0.50;0.50;;;18.00;78.90;;;;;;5032089;28;20051;-68
2023/04/29 01:53:15;;;;;;;1.95;0.50;;;18.00;79.10;;;;;;5031998;28;20111;-69
2023/04/29 01:55:42;;;;;;;0.60;0.60;;;17.90;79.00;;;;;;5012109;28;20505;-69
2023/04/29 01:58:09;;;;;;;0.38;0.38;;;18.00;79.00;;;;;;5012296;28;20137;-68
2023/04/29 02:00:35;;;;;;;0.52;0.40;;;18.00;79.10;;;;;;5012014;28;20484;-69
2023/04/29 02:03:00;;;;;;;0.38;0.30;;;18.00;79.20;;;;;;5011212;28;20026;-68
2023/04/29 02:05:31;;;;;;;0.50;0.50;;;18.00;79.20;;;;;;4995895;28;20053;-68
2023/04/29 02:07:56;;;;;;;1.77;0.47;;;18.00;79.20;;;;;;5010943;28;20141;-68
2023/04/29 02:10:22;;;;;;;0.57;0.38;;;17.90;79.20;;;;;;5014015;28;20555;-68
2023/04/29 02:12:47;;;;;;;0.40;0.40;;;17.90;79.20;;;;;;5014133;28;20112;-68
2023/04/29 02:15:13;;;;;;;0.40;0.40;;;17.90;79.30;;;;;;5014067;28;20029;-68
2023/04/29 02:17:39;;;;;;;0.80;0.50;;;17.90;79.40;;;;;;5014087;28;20036;-68
2023/04/29 02:20:06;;;;;;;0.50;0.40;;;17.90;79.40;;;;;;5014156;28;20025;-68
2023/04/29 02:22:32;;;;;;;0.50;0.50;;;18.00;79.50;;;;;;5028781;28;20576;-68
2023/04/29 02:24:57;;;;;;;0.60;0.60;;;17.90;79.40;;;;;;5014025;28;20069;-68
2023/04/29 02:27:23;;;;;;;0.50;0.50;;;17.90;79.50;;;;;;5013914;28;20109;-68
2023/04/29 02:29:50;;;;;;;0.45;0.40;;;17.90;79.50;;;;;;5013876;28;20029;-68
2023/04/29 02:32:18;;;;;;;0.43;0.43;;;17.90;79.50;;;;;;5014028;28;20022;-69
2023/04/29 02:34:46;;;;;;;0.50;0.50;;;17.90;79.60;;;;;;5028469;28;20030;-68
2023/04/29 02:37:13;;;;;;;0.50;0.43;;;17.90;79.80;;;;;;5028813;28;20029;-68
2023/04/29 02:39:40;;;;;;;1.48;0.40;;;18.00;79.80;;;;;;5013698;28;20100;-68
2023/04/29 02:42:06;;;;;;;0.40;0.40;;;17.90;79.70;;;;;;5028711;28;20025;-68
2023/04/29 02:44:32;;;;;;;0.40;0.40;;;17.90;79.80;;;;;;5013564;28;20030;-68
2023/04/29 02:46:58;;;;;;;0.57;0.40;;;17.90;79.80;;;;;;5017845;28;20385;-68
2023/04/29 02:49:23;;;;;;;0.30;0.30;;;17.90;79.80;;;;;;5032956;28;20405;-68
2023/04/29 02:51:49;;;;;;;0.80;0.50;;;17.90;79.70;;;;;;5032126;28;20024;-68
2023/04/29 02:54:15;;;;;;;0.50;0.50;;;17.90;79.80;;;;;;5031896;28;20025;-68
2023/04/29 02:56:41;;;;;;;0.60;0.60;;;17.90;79.80;;;;;;5031705;28;20073;-68
2023/04/29 02:59:07;;;;;;;0.52;0.38;;;17.90;79.80;;;;;;5033104;28;20021;-68
2023/04/29 03:01:32;;;;;;;0.47;0.47;;;17.90;79.70;;;;;;5033041;28;20021;-68
2023/04/29 03:03:58;;;;;;;1.25;0.60;;;17.90;79.80;;;;;;5031589;28;20030;-68
2023/04/29 03:06:24;;;;;;;0.63;0.40;;;17.90;79.90;;;;;;5033109;28;20032;-68
2023/04/29 03:08:51;;;;;;;0.38;0.35;;;17.90;79.80;;;;;;5032848;28;20041;-69
2023/04/29 03:11:17;;;;;;;0.30;0.30;;;17.90;79.80;;;;;;5032779;28;20052;-68
2023/04/29 03:13:43;;;;;;;0.57;0.57;;;17.90;80.00;;;;;;5032531;28;20080;-68
2023/04/29 03:16:09;;;;;;;1.00;0.60;;;17.90;79.90;;;;;;5032840;28;20022;-68
2023/04/29 03:18:35;;;;;;;0.50;0.50;;;17.90;79.90;;;;;;5032569;28;20026;-68
2023/04/29 03:21:03;;;;;;;0.50;0.40;;;17.90;80.00;;;;;;5032813;28;20024;-68
2023/04/29 03:23:29;;;;;;;1.25;0.40;;;17.90;80.00;;;;;;5032633;28;20021;-68
2023/04/29 03:25:55;;;;;;;0.98;0.40;;;17.90;80.00;;;;;;5032466;28;20021;-68
2023/04/29 03:28:21;;;;;;;0.50;0.50;;;17.90;80.10;;;;;;5032736;28;20025;-69
2023/04/29 03:30:47;;;;;;;0.45;0.45;;;17.90;80.00;;;;;;5032680;28;20029;-68
2023/04/29 03:33:12;;;;;;;0.70;0.60;;;17.90;80.10;;;;;;5032364;28;20029;-68
2023/04/29 03:35:38;;;;;;;0.50;0.50;;;17.90;80.10;;;;;;5032446;28;20120;-69
2023/04/29 03:38:04;;;;;;;1.58;0.63;;;17.90;80.10;;;;;;5032351;28;20021;-68
2023/04/29 03:40:29;;;;;;;0.60;0.60;;;17.90;80.10;;;;;;5032535;28;20056;-68
2023/04/29 03:42:55;;;;;;;0.40;0.40;;;17.90;80.20;;;;;;5032547;28;20022;-68
2023/04/29 03:45:21;;;;;;;1.10;0.50;;;17.90;80.30;;;;;;5032373;28;20025;-68
2023/04/29 03:47:47;;;;;;;0.52;0.52;;;17.90;80.40;;;;;;5031755;28;20388;-68
2023/04/29 03:50:12;;;;;;;0.50;0.50;;;17.90;80.40;;;;;;5032406;28;20404;-68
2023/04/29 03:52:38;;;;;;;0.45;0.45;;;17.90;80.40;;;;;;5031126;28;20033;-68
2023/04/29 03:55:04;;;;;;;0.50;0.50;;;17.90;80.50;;;;;;5031060;28;20082;-68
2023/04/29 03:57:30;;;;;;;0.70;0.70;;;17.90;80.50;;;;;;5032150;28;20084;-68
2023/04/29 03:59:55;;;;;;;1.05;0.50;;;17.90;80.60;;;;;;5032220;28;20022;-68
2023/04/29 04:02:21;;;;;;;0.60;0.60;;;17.90;80.60;;;;;;5032111;28;20025;-68
2023/04/29 04:04:46;;;;;;;0.70;0.60;;;17.90;80.70;;;;;;5032318;28;20034;-68
2023/04/29 04:07:12;;;;;;;0.50;0.50;;;17.90;80.70;;;;;;5032231;28;20033;-68
2023/04/29 04:09:37;;;;;;;0.80;0.80;;;17.90;80.70;;;;;;5031045;28;20484;-68
2023/04/29 04:12:04;;;;;;;1.33;0.70;;;17.90;80.60;;;;;;5032136;28;20026;-68
2023/04/29 04:14:30;;;;;;;1.08;0.68;;;17.90;80.60;;;;;;5030973;28;20022;-68
2023/04/29 04:16:57;;;;;;;1.05;0.60;;;17.80;80.60;;;;;;5031830;28;20105;-68
2023/04/29 04:19:25;;;;;;;0.73;0.50;;;17.80;80.70;;;;;;5032092;28;20080;-68
2023/04/29 04:21:52;;;;;;;0.60;0.60;;;17.80;80.70;;;;;;5032396;28;20049;-68
2023/04/29 04:24:20;;;;;;;0.65;0.65;;;17.90;80.80;;;;;;5032264;28;20487;-68
2023/04/29 04:26:46;;;;;;;0.60;0.60;;;17.80;80.70;;;;;;5033839;28;20030;-68
2023/04/29 04:29:12;;;;;;;0.77;0.77;;;17.90;80.80;;;;;;5036089;28;20079;-68
2023/04/29 04:31:37;;;;;;;0.93;0.80;;;17.80;80.70;;;;;;5035672;28;20025;-68
2023/04/29 04:34:03;;;;;;;0.70;0.52;;;17.80;80.80;;;;;;5034542;28;20032;-68
2023/04/29 04:36:29;;;;;;;1.05;0.70;;;17.80;80.80;;;;;;5035853;28;20389;-68
2023/04/29 04:38:54;;;;;;;0.60;0.60;;;17.80;80.80;;;;;;5034357;28;20514;-68
2023/04/29 04:41:20;;;;;;;1.00;0.80;;;17.80;80.90;;;;;;5035718;28;20032;-68
2023/04/29 04:43:46;;;;;;;0.82;0.82;;;17.80;80.90;;;;;;5034471;28;20492;-68
2023/04/29 04:46:13;;;;;;;0.70;0.70;;;17.80;81.00;;;;;;5035429;28;20072;-68
2023/04/29 04:48:38;;;;;;;0.95;0.75;;;17.80;80.90;;;;;;5034190;28;20021;-68
2023/04/29 04:51:10;;;;;;;1.15;0.80;;;17.80;81.00;;;;;;5034301;28;20029;-68
2023/04/29 04:53:36;;;;;;;1.60;0.70;;;17.80;81.00;;;;;;5027402;28;20108;-68
2023/04/29 04:56:02;;;;;;;0.82;0.82;;;17.80;81.20;;;;;;5035148;28;20469;-68
2023/04/29 04:58:29;;;;;;;2.35;0.80;;;17.80;81.30;;;;;;5034552;28;20018;-68
2023/04/29 05:00:55;;;;;;;1.63;0.80;;;17.90;81.70;;;;;;5035781;28;20033;-69
2023/04/29 05:03:21;;;;;;;1.05;0.80;;;17.90;81.50;;;;;;5034621;28;20430;-68
2023/04/29 05:05:53;;;;;;;3.58;0.90;;;17.90;81.40;;;;;;5028812;28;20033;-68
2023/04/29 05:08:19;;;;;;;3.20;0.80;;;17.90;81.50;;;;;;5019423;28;20018;-69
2023/04/29 05:10:44;;;;;;;1.13;0.65;;;17.80;81.50;;;;;;5015171;28;20034;-68
2023/04/29 05:13:10;;;;;;;1.55;0.70;;;17.90;81.60;;;;;;5015398;28;20515;-68
2023/04/29 05:15:36;;;;;;;1.10;1.02;;;17.90;81.70;;;;;;5013799;28;20030;-68
2023/04/29 05:18:01;;;;;;;2.55;0.85;;;17.90;81.70;;;;;;5014329;28;20018;-69
2023/04/29 05:20:27;;;;;;;0.73;0.57;;;17.90;81.70;;;;;;5015254;28;20060;-68
2023/04/29 05:22:52;;;;;;;1.77;0.70;;;17.80;81.60;;;;;;5015132;28;20022;-68
2023/04/29 05:25:18;;;;;;;0.73;0.70;;;17.90;81.60;;;;;;5015360;28;20485;-68
2023/04/29 05:27:44;;;;;;;0.55;0.55;;;17.90;81.60;;;;;;5024852;28;20022;-68
2023/04/29 05:30:10;;;;;;;1.20;0.93;;;17.80;81.70;;;;;;5015343;28;20045;-68
2023/04/29 05:32:36;;;;;;;0.60;0.60;;;17.90;81.70;;;;;;5017719;28;20017;-68
2023/04/29 05:35:01;;;;;;;0.70;0.70;;;17.90;81.70;;;;;;5023535;28;20116;-68
2023/04/29 05:37:29;;;;;;;0.60;0.60;;;17.80;81.60;;;;;;5013404;28;20026;-68
2023/04/29 05:39:56;;;;;;;0.80;0.80;;;17.80;81.60;;;;;;5017231;28;20029;-68
2023/04/29 05:42:22;;;;;;;0.70;0.70;;;17.90;81.70;;;;;;5024064;28;20059;-68
2023/04/29 05:44:48;;;;;;;1.27;0.80;;;17.90;81.70;;;;;;5015007;28;20118;-69
2023/04/29 05:47:14;;;;;;;1.35;0.80;;;17.90;81.70;;;;;;5014938;28;20120;-68
2023/04/29 05:49:39;;;;;;;2.08;0.70;;;17.90;81.70;;;;;;5015303;28;20030;-69
2023/04/29 05:52:05;;;;;;;0.70;0.70;;;17.90;81.70;;;;;;5014981;28;20022;-68
2023/04/29 05:54:34;;;;;;;2.40;0.70;;;17.80;81.60;;;;;;5019023;28;20373;-68
2023/04/29 05:57:04;;;;;;;0.73;0.73;;;17.90;81.70;;;;;;5034465;28;20038;-67
2023/04/29 05:59:30;;;;;;;1.27;0.90;;;17.90;81.70;;;;;;5032206;28;20029;-68
2023/04/29 06:01:56;;;;;;;0.90;0.70;;;17.80;81.70;;;;;;5024872;28;20465;-68
2023/04/29 06:04:23;;;;;;;1.38;0.55;;;17.80;81.70;;;;;;5025138;28;20044;-69
2023/04/29 06:06:52;;;;;;;0.80;0.68;;;17.90;81.70;;;;;;5014843;28;20018;-68
2023/04/29 06:09:21;;;;;;;1.85;0.80;;;17.80;81.70;;;;;;5014882;28;20547;-68
2023/04/29 06:11:47;;;;;;;0.75;0.70;;;17.90;81.80;;;;;;5013242;28;20030;-68
2023/04/29 06:14:12;;;;;;;1.10;0.85;;;17.80;81.70;;;;;;5014380;28;20036;-68
2023/04/29 06:16:38;;;;;;;0.68;0.68;;;17.90;81.70;;;;;;5014399;28;20037;-68
2023/04/29 06:19:04;;;;;;;0.70;0.70;;;17.90;81.70;;;;;;4996924;28;20404;-68
2023/04/29 06:21:30;;;;;;;0.63;0.63;;;17.80;81.70;;;;;;5013380;28;20025;-68
2023/04/29 06:23:56;;;;;;;0.98;0.70;;;17.90;81.80;;;;;;5014540;28;20053;-68
2023/04/29 06:26:22;;;;;;;1.33;0.80;;;17.90;81.70;;;;;;5014296;28;20022;-68
2023/04/29 06:28:47;;;;;;;0.70;0.70;;;17.80;81.60;;;;;;5012971;28;20407;-68
2023/04/29 06:31:13;;;;;;;0.80;0.80;;;17.80;81.60;;;;;;5014548;28;20037;-68
2023/04/29 06:33:39;;;;;;;0.60;0.60;;;17.80;81.60;;;;;;5014364;28;20034;-68
2023/04/29 06:36:05;;;;;;;0.60;0.60;;;17.80;81.70;;;;;;5013990;28;20100;-69
2023/04/29 06:38:30;;;;;;;0.88;0.70;;;17.80;81.60;;;;;;5014189;28;20391;-68
2023/04/29 06:40:59;;;;;;;0.95;0.65;;;17.90;82.00;;;;;;5012894;28;20044;-68
2023/04/29 06:43:29;;;;;;;1.20;0.68;;;17.90;81.70;;;;;;5013941;28;20026;-67
2023/04/29 06:45:55;;;;;;;0.77;0.60;;;17.80;81.50;;;;;;5014270;28;20022;-68
2023/04/29 06:48:20;;;;;;;0.50;0.50;;;17.90;81.20;;;;;;5029123;28;20056;-68
2023/04/29 06:50:49;;;;;;;1.17;0.50;;;17.80;80.90;;;;;;5032104;28;20037;-68
2023/04/29 06:53:15;;;;;;;1.10;0.70;;;17.80;80.70;;;;;;5033875;28;20041;-67
2023/04/29 06:55:41;;;;;;;0.50;0.50;;;17.80;80.50;;;;;;5033419;28;20026;-67
2023/04/29 06:58:06;;;;;;;0.70;0.70;;;17.80;81.20;;;;;;5029841;28;20033;-67
2023/04/29 07:00:32;;;;;;;0.70;0.70;;;17.80;80.20;;;;;;5023727;28;20033;-67
2023/04/29 07:02:58;;;;;;;0.50;0.50;;;17.80;80.10;;;;;;5022934;28;20026;-68
2023/04/29 07:05:24;;;;;;;0.68;0.52;;;17.80;79.90;;;;;;5014166;28;20481;-67
2023/04/29 07:07:49;;;;;;;0.50;0.50;;;17.80;79.90;;;;;;5012516;28;20033;-68
2023/04/29 07:10:15;;;;;;;0.50;0.50;;;17.80;79.50;;;;;;5013829;28;20030;-67
2023/04/29 07:12:41;;;;;;;1.95;0.73;;;17.80;79.40;;;;;;5012365;28;20026;-68
2023/04/29 07:15:07;;;;;;;1.15;0.70;;;17.80;79.00;;;;;;5012316;28;20040;-68
2023/04/29 07:17:32;;;;;;;0.52;0.52;;;17.80;79.00;;;;;;5013544;28;20070;-67
2023/04/29 07:19:58;;;;;;;1.70;0.68;;;17.80;78.90;;;;;;5013487;28;20032;-68
2023/04/29 07:22:24;;;;;;;4.88;1.20;;;17.80;78.80;;;;;;5013545;28;20029;-68
2023/04/29 07:24:53;;;;;;;4.13;1.10;;;17.80;78.90;;;;;;5013393;28;20018;-66
2023/04/29 07:27:19;;;;;;;12.40;1.35;;;17.80;79.50;;;;;;5012507;28;20076;-67
2023/04/29 07:29:44;;;;;;;4.50;1.42;;;17.80;79.70;;;;;;5011133;28;20034;-67
2023/04/29 07:32:10;;;;;;;6.32;1.42;;;17.80;80.10;;;;;;5010850;28;20101;-67
2023/04/29 07:34:36;;;;;;;4.95;1.40;;;17.80;80.30;;;;;;5011673;28;20018;-67
2023/04/29 07:37:02;;;;;;;3.42;1.30;;;17.80;80.40;;;;;;5011660;28;20026;-67
2023/04/29 07:39:29;;;;;;;4.18;1.60;;;17.80;80.50;;;;;;5011726;28;20022;-67
2023/04/29 07:41:54;;;;;;;3.85;1.40;;;17.80;80.50;;;;;;5011672;28;20034;-67
2023/04/29 07:44:21;;;;;;;3.80;1.00;;;17.80;80.40;;;;;;5011980;28;20578;-67
2023/04/29 07:46:47;;;;;;;4.57;1.25;;;17.80;80.50;;;;;;5015135;28;20041;-68
2023/04/29 07:49:12;;;;;;;1.98;1.30;;;17.80;80.40;;;;;;5032469;28;20025;-68
2023/04/29 07:51:41;;;;;;;2.97;1.27;;;17.80;80.40;;;;;;5031235;28;20522;-68
2023/04/29 07:54:07;;;;;;;3.15;0.93;;;17.70;80.30;;;;;;5030770;28;20053;-67
2023/04/29 07:56:33;;;;;;;2.63;1.58;;;17.70;80.30;;;;;;5030848;28;20053;-68
2023/04/29 07:59:00;;;;;;;2.97;1.08;;;17.70;81.30;;;;;;5032231;28;20448;-67
2023/04/29 08:01:26;;;;;;;3.50;1.40;;;17.80;80.20;;;;;;5032281;28;20025;-67
2023/04/29 08:03:51;;;;;;;4.40;1.77;;;17.80;80.20;;;;;;5035237;28;20018;-67
2023/04/29 08:06:19;;;;;;;4.28;1.13;;;17.70;80.10;;;;;;5035185;28;20117;-67
2023/04/29 08:08:46;;;;;;;2.33;1.33;;;17.70;80.10;;;;;;5034906;28;20014;-67
2023/04/29 08:11:16;;;;;;;1.50;1.13;;;17.80;80.00;;;;;;5036343;28;20032;-68
2023/04/29 08:13:41;;;;;;;1.20;1.00;;;17.70;80.00;;;;;;5035232;28;20023;-68
2023/04/29 08:16:08;;;;;;;1.52;1.30;;;17.70;79.80;;;;;;5034836;28;20105;-67
2023/04/29 08:18:34;;;;;;;2.10;0.90;;;17.70;79.80;;;;;;5036097;28;20022;-68
2023/04/29 08:21:00;;;;;;;3.30;1.10;;;17.70;79.70;;;;;;5034858;28;20503;-68
2023/04/29 08:23:26;;;;;;;1.30;0.90;;;17.70;79.70;;;;;;5035826;28;20026;-68
2023/04/29 08:25:54;;;;;;;2.22;1.00;;;17.70;79.70;;;;;;5036086;28;20029;-67
2023/04/29 08:28:19;;;;;;;4.63;0.98;;;17.70;79.50;;;;;;5036016;28;20087;-67
2023/04/29 08:30:45;;;;;;;1.02;0.77;;;17.70;79.50;;;;;;5035934;28;20026;-67
2023/04/29 08:33:11;;;;;;;1.10;0.98;;;17.70;79.40;;;;;;5035809;28;20022;-67
2023/04/29 08:35:37;;;;;;;2.65;0.90;;;17.70;79.40;;;;;;5035838;28;20025;-67
2023/04/29 08:38:05;;;;;;;0.95;0.90;;;17.70;79.30;;;;;;5035575;28;20029;-67
2023/04/29 08:40:40;;;;;;;2.63;1.15;;;17.70;79.30;;;;;;5034574;28;20017;-68
2023/04/29 08:43:05;;;;;;;2.25;1.08;;;17.70;79.20;;;;;;5035645;28;20546;-67
2023/04/29 08:45:32;;;;;;;3.47;0.80;;;17.70;79.20;;;;;;5018059;28;20156;-67
2023/04/29 08:47:58;;;;;;;0.82;0.82;;;17.70;79.10;;;;;;5034232;28;20026;-67
2023/04/29 08:50:24;;;;;;;3.33;0.90;;;17.70;79.10;;;;;;5034332;28;20034;-67
2023/04/29 08:52:50;;;;;;;1.60;0.90;;;17.70;80.00;;;;;;5035243;28;20029;-67
2023/04/29 08:55:17;;;;;;;2.42;0.90;;;17.70;79.00;;;;;;5035340;28;20029;-68
2023/04/29 08:57:42;;;;;;;0.73;0.70;;;17.70;78.90;;;;;;5034104;28;20049;-67
2023/04/29 09:00:12;;;;;;;1.17;0.68;;;17.70;78.90;;;;;;5034183;28;20026;-67
2023/04/29 09:02:44;;;;;;;2.83;1.10;;;17.70;78.80;;;;;;5034218;28;20021;-68
2023/04/29 09:05:12;;;;;;;0.98;0.75;;;17.70;78.80;;;;;;5035088;28;20484;-67
2023/04/29 09:07:38;;;;;;;2.83;1.00;;;17.70;78.80;;;;;;5034985;28;20029;-67
2023/04/29 09:10:04;;;;;;;0.75;0.70;;;17.70;78.80;;;;;;5017525;28;20109;-67
2023/04/29 09:12:30;;;;;;;1.05;0.80;;;17.70;78.70;;;;;;5033202;28;20053;-68
2023/04/29 09:14:56;;;;;;;0.70;0.70;;;17.70;78.70;;;;;;5035123;28;20064;-68
2023/04/29 09:17:41;;;;;;;4.43;1.08;;;17.60;78.60;;;;;;5034934;28;20021;-67
2023/04/29 09:20:21;;;;;;;1.30;0.70;;;17.70;78.70;;;;;;5034898;28;20025;-67
2023/04/29 09:22:47;;;;;;;3.00;0.77;;;17.70;78.60;;;;;;5034782;28;20168;-67
2023/04/29 09:25:13;;;;;;;1.25;0.90;;;17.70;78.70;;;;;;5034930;28;20108;-67
2023/04/29 09:27:38;;;;;;;0.57;0.57;;;17.70;78.60;;;;;;5033857;28;20032;-67
2023/04/29 09:30:04;;;;;;;0.95;0.60;;;17.60;78.50;;;;;;5034792;28;20026;-68
2023/04/29 09:32:30;;;;;;;1.52;0.77;;;17.60;78.50;;;;;;5034672;28;20026;-68
2023/04/29 09:34:56;;;;;;;0.95;0.75;;;17.60;78.60;;;;;;5034829;28;20035;-68
2023/04/29 09:37:26;;;;;;;0.82;0.70;;;17.60;78.50;;;;;;5033355;28;20025;-67
2023/04/29 09:39:52;;;;;;;1.10;0.70;;;17.70;78.50;;;;;;5017210;28;20014;-68
2023/04/29 09:42:18;;;;;;;0.55;0.52;;;17.60;78.50;;;;;;5016744;28;20026;-67
2023/04/29 09:44:44;;;;;;;1.15;0.50;;;17.60;78.50;;;;;;5034583;28;20476;-68
2023/04/29 09:47:09;;;;;;;0.85;0.50;;;17.70;78.50;;;;;;5034516;28;20433;-67
2023/04/29 09:49:40;;;;;;;1.15;0.60;;;17.60;78.50;;;;;;5016770;28;20384;-68
2023/04/29 09:52:15;;;;;;;1.60;0.70;;;17.60;78.40;;;;;;5033002;28;20034;-67
2023/04/29 09:54:41;;;;;;;1.92;0.60;;;17.60;78.40;;;;;;5033258;28;20108;-68
2023/04/29 09:57:08;;;;;;;0.50;0.50;;;17.70;78.50;;;;;;5016308;28;20392;-67
2023/04/29 09:59:35;;;;;;;1.40;0.60;;;17.60;78.40;;;;;;5034327;28;20029;-67
2023/04/29 10:02:02;;;;;;;0.65;0.65;;;17.60;78.40;;;;;;5034285;28;20021;-68
2023/04/29 10:04:28;;;;;;;1.15;0.80;;;17.60;78.40;;;;;;5032774;28;20030;-68
2023/04/29 10:06:54;;;;;;;1.02;0.70;;;17.60;78.50;;;;;;5032941;28;20030;-67
2023/04/29 10:09:21;;;;;;;1.35;0.75;;;17.60;78.40;;;;;;5032714;28;20084;-67
2023/04/29 10:11:49;;;;;;;1.20;0.68;;;17.60;78.40;;;;;;5033023;28;20025;-67
2023/04/29 10:14:16;;;;;;;0.55;0.45;;;17.60;78.40;;;;;;5032899;28;20107;-68
2023/04/29 10:16:51;;;;;;;0.77;0.63;;;17.60;78.40;;;;;;5032625;28;20026;-68
2023/04/29 10:19:34;;;;;;;0.73;0.70;;;17.60;78.30;;;;;;5033605;28;20563;-67
2023/04/29 10:22:02;;;;;;;2.92;0.70;;;17.60;78.40;;;;;;5017388;28;20508;-67
2023/04/29 10:24:28;;;;;;;0.60;0.60;;;17.60;78.40;;;;;;5031576;28;20504;-68
2023/04/29 10:26:55;;;;;;;0.40;0.40;;;17.60;78.40;;;;;;5032813;28;20116;-67
2023/04/29 10:29:21;;;;;;;1.15;0.70;;;17.60;78.40;;;;;;5032397;28;20075;-68
2023/04/29 10:31:48;;;;;;;1.13;0.50;;;17.60;78.30;;;;;;5032292;28;20120;-67
2023/04/29 10:34:15;;;;;;;1.35;0.60;;;17.60;78.30;;;;;;5032251;28;20037;-67
2023/04/29 10:36:41;;;;;;;0.50;0.50;;;17.60;78.40;;;;;;5032496;28;20480;-67
2023/04/29 10:39:08;;;;;;;1.38;0.50;;;17.60;78.30;;;;;;5033576;28;20018;-67
2023/04/29 10:41:37;;;;;;;0.50;0.50;;;17.60;78.30;;;;;;5032245;28;20030;-67
2023/04/29 10:44:03;;;;;;;0.40;0.40;;;17.60;78.30;;;;;;5032312;28;20056;-66
2023/04/29 10:46:29;;;;;;;0.90;0.40;;;17.70;78.40;;;;;;5033117;28;20072;-67
2023/04/29 10:49:05;;;;;;;0.82;0.50;;;17.60;78.30;;;;;;5033108;28;20101;-67
2023/04/29 10:51:34;;;;;;;0.75;0.50;;;17.60;78.30;;;;;;5031935;28;20029;-67
2023/04/29 10:54:00;;;;;;;1.10;0.45;;;17.60;78.30;;;;;;5032179;28;20018;-67
2023/04/29 10:56:36;;;;;;;0.50;0.50;;;17.60;78.30;;;;;;5032878;28;20045;-67
2023/04/29 10:59:02;;;;;;;0.55;0.40;;;17.60;78.30;;;;;;5032234;28;20032;-67
2023/04/29 11:01:45;;;;;;;1.33;0.63;;;17.60;78.30;;;;;;5031980;28;20552;-67
2023/04/29 11:04:11;;;;;;;0.63;0.30;;;17.60;78.30;;;;;;5032934;28;20022;-67
2023/04/29 11:06:38;;;;;;;0.82;0.52;;;17.60;78.30;;;;;;5031712;28;20040;-67
2023/04/29 11:09:13;;;;;;;0.30;0.30;;;17.60;78.30;;;;;;5032990;28;20029;-67
2023/04/29 11:12:04;;;;;;;2.00;0.50;;;17.60;78.20;;;;;;5015608;28;20057;-67
2023/04/29 11:14:31;;;;;;;0.45;0.40;;;17.60;78.20;;;;;;5031789;28;20100;-67
2023/04/29 11:17:15;;;;;;;0.50;0.30;;;17.60;78.20;;;;;;5031440;28;20510;-67
2023/04/29 11:19:45;;;;;;;0.40;0.40;;;17.70;78.30;;;;;;5032919;28;20047;-67
2023/04/29 11:22:26;;;;;;;0.50;0.50;;;17.60;78.20;;;;;;5015654;28;20112;-67
2023/04/29 11:24:54;;;;;;;0.50;0.40;;;17.70;78.30;;;;;;5032686;28;20049;-66
2023/04/29 11:27:24;;;;;;;0.55;0.50;;;17.60;78.20;;;;;;5031454;28;20021;-67
2023/04/29 11:29:50;;;;;;;0.50;0.50;;;17.60;78.20;;;;;;5031650;28;20025;-67
2023/04/29 11:32:19;;;;;;;0.35;0.30;;;17.60;78.20;;;;;;5031034;28;20044;-67
2023/04/29 11:34:44;;;;;;;0.70;0.40;;;17.60;78.20;;;;;;5031199;28;20071;-67
2023/04/29 11:37:10;;;;;;;0.43;0.40;;;17.70;78.20;;;;;;5031312;28;20450;-66
2023/04/29 11:39:36;;;;;;;0.43;0.40;;;17.60;78.20;;;;;;5032621;28;20475;-67
2023/04/29 11:42:05;;;;;;;0.40;0.40;;;17.60;78.10;;;;;;5031325;28;20395;-67
2023/04/29 11:44:35;;;;;;;0.38;0.38;;;17.60;78.10;;;;;;5031121;28;20014;-67
2023/04/29 11:47:07;;;;;;;0.88;0.50;;;17.60;78.20;;;;;;5031055;28;20109;-67
2023/04/29 11:49:33;;;;;;;0.40;0.40;;;17.70;78.10;;;;;;5032508;28;20075;-67
2023/04/29 11:51:59;;;;;;;0.35;0.30;;;17.70;78.20;;;;;;5031326;28;20028;-67
2023/04/29 11:54:28;;;;;;;0.30;0.30;;;17.70;78.10;;;;;;5031177;28;20025;-67
2023/04/29 11:56:57;;;;;;;0.82;0.40;;;17.70;78.10;;;;;;5032224;28;20138;-67
2023/04/29 11:59:23;;;;;;;0.30;0.30;;;17.60;78.10;;;;;;5030926;28;20049;-67
2023/04/29 12:01:50;;;;;;;0.75;0.50;;;17.70;78.10;;;;;;5032171;28;20028;-67
2023/04/29 12:04:16;;;;;;;0.50;0.50;;;17.70;78.10;;;;;;5031213;28;20048;-67
2023/04/29 12:06:42;;;;;;;0.40;0.40;;;17.60;78.00;;;;;;5032283;28;20018;-67
2023/04/29 12:09:07;;;;;;;1.38;0.68;;;17.70;78.10;;;;;;5030938;28;20037;-67
2023/04/29 12:11:34;;;;;;;0.73;0.43;;;17.70;78.10;;;;;;5032020;28;20033;-67
2023/04/29 12:14:02;;;;;;;0.35;0.30;;;17.70;78.10;;;;;;5031311;28;20030;-67
2023/04/29 12:16:28;;;;;;;0.57;0.50;;;17.70;78.10;;;;;;5014688;28;20071;-67
2023/04/29 12:18:53;;;;;;;0.57;0.47;;;17.70;78.10;;;;;;5014658;28;20025;-67
2023/04/29 12:21:21;;;;;;;0.40;0.40;;;17.70;78.10;;;;;;5014458;28;20487;-67
2023/04/29 12:23:47;;;;;;;0.30;0.30;;;17.70;78.00;;;;;;5031133;28;20167;-67
2023/04/29 12:26:12;;;;;;;0.47;0.45;;;17.70;78.10;;;;;;5030993;28;20559;-67
2023/04/29 12:28:40;;;;;;;0.43;0.32;;;17.70;78.10;;;;;;5014448;28;20033;-67
2023/04/29 12:31:08;;;;;;;0.40;0.30;;;17.70;78.10;;;;;;5030716;28;20021;-68
2023/04/29 12:33:33;;;;;;;0.40;0.30;;;17.70;78.00;;;;;;5031897;28;20078;-67
2023/04/29 12:35:59;;;;;;;0.43;0.20;;;17.70;78.00;;;;;;5032178;28;20025;-67
2023/04/29 12:38:26;;;;;;;0.30;0.30;;;17.70;78.10;;;;;;5032047;28;20048;-67
2023/04/29 12:40:53;;;;;;;0.35;0.35;;;17.70;78.10;;;;;;5014454;28;20029;-67
2023/04/29 12:43:19;;;;;;;0.30;0.30;;;17.70;78.00;;;;;;5030639;28;20022;-67
2023/04/29 12:45:44;;;;;;;0.45;0.40;;;17.70;78.00;;;;;;5031860;28;20026;-67
2023/04/29 12:48:11;;;;;;;0.30;0.30;;;17.70;78.00;;;;;;5033006;28;20034;-67